sensor_id;sensor_type;location;lat;lon;timestamp;pressure;altitude;pressure_sealevel;temperature;humidity
11712;BME280;5912;51.034;6.984;2023-07-16T00:01:39;56146.00;;;-142.13;60.25
11712;BME280;5912;51.034;6.984;2023-07-16T00:04:05;56144.00;;;-142.13;60.47
11712;BME280;5912;51.034;6.984;2023-07-16T00:06:30;56127.97;;;-142.13;60.30
11712;BME280;5912;51.034;6.984;2023-07-16T00:08:55;56162.03;;;-142.13;60.48
11712;BME280;5912;51.034;6.984;2023-07-16T00:11:21;56146.00;;;-142.13;60.39
11712;BME280;5912;51.034;6.984;2023-07-16T00:13:46;56142.00;;;-142.13;60.40
11712;BME280;5912;51.034;6.984;2023-07-16T00:16:13;56123.97;;;-142.13;60.34
11712;BME280;5912;51.034;6.984;2023-07-16T00:18:39;56154.00;;;-142.13;60.35
11712;BME280;5912;51.034;6.984;2023-07-16T00:21:04;56111.94;;;-142.13;60.13
11712;BME280;5912;51.034;6.984;2023-07-16T00:23:30;56129.97;;;-142.13;59.61
11712;BME280;5912;51.034;6.984;2023-07-16T00:25:55;56125.97;;;-142.13;59.81
11712;BME280;5912;51.034;6.984;2023-07-16T00:28:20;56121.97;;;-142.13;59.72
11712;BME280;5912;51.034;6.984;2023-07-16T00:30:45;56133.97;;;-142.13;59.70
11712;BME280;5912;51.034;6.984;2023-07-16T00:33:11;56156.00;;;-142.13;59.64
11712;BME280;5912;51.034;6.984;2023-07-16T00:35:36;56135.97;;;-142.13;59.71
11712;BME280;5912;51.034;6.984;2023-07-16T00:38:01;56148.00;;;-142.13;59.74
11712;BME280;5912;51.034;6.984;2023-07-16T00:40:27;56162.03;;;-142.13;59.89
11712;BME280;5912;51.034;6.984;2023-07-16T00:42:52;56144.00;;;-142.13;59.70
11712;BME280;5912;51.034;6.984;2023-07-16T00:45:17;56117.97;;;-142.13;59.85
11712;BME280;5912;51.034;6.984;2023-07-16T00:47:43;56133.97;;;-142.13;60.11
11712;BME280;5912;51.034;6.984;2023-07-16T00:50:10;56152.00;;;-142.13;60.17
11712;BME280;5912;51.034;6.984;2023-07-16T00:52:36;56182.06;;;-142.13;60.32
11712;BME280;5912;51.034;6.984;2023-07-16T00:55:02;56168.03;;;-142.13;60.58
11712;BME280;5912;51.034;6.984;2023-07-16T00:57:28;56178.03;;;-142.13;60.46
11712;BME280;5912;51.034;6.984;2023-07-16T00:59:53;56164.03;;;-142.13;60.73
11712;BME280;5912;51.034;6.984;2023-07-16T01:02:18;56166.03;;;-142.13;60.75
11712;BME280;5912;51.034;6.984;2023-07-16T01:04:44;56156.00;;;-142.13;60.95
11712;BME280;5912;51.034;6.984;2023-07-16T01:07:11;56152.00;;;-142.13;60.68
11712;BME280;5912;51.034;6.984;2023-07-16T01:09:41;56162.03;;;-142.13;61.15
11712;BME280;5912;51.034;6.984;2023-07-16T01:12:07;56144.00;;;-142.13;61.22
11712;BME280;5912;51.034;6.984;2023-07-16T01:14:34;56170.03;;;-142.13;61.52
11712;BME280;5912;51.034;6.984;2023-07-16T01:17:03;56194.06;;;-142.13;61.62
11712;BME280;5912;51.034;6.984;2023-07-16T01:19:29;56168.03;;;-142.13;61.41
11712;BME280;5912;51.034;6.984;2023-07-16T01:30:02;56194.06;;;-142.13;61.13
11712;BME280;5912;51.034;6.984;2023-07-16T01:32:30;56172.03;;;-142.13;61.18
11712;BME280;5912;51.034;6.984;2023-07-16T01:34:56;56168.03;;;-142.13;61.09
11712;BME280;5912;51.034;6.984;2023-07-16T01:37:22;56174.03;;;-142.13;60.96
11712;BME280;5912;51.034;6.984;2023-07-16T01:39:48;56176.03;;;-142.13;60.96
11712;BME280;5912;51.034;6.984;2023-07-16T01:42:14;56166.03;;;-142.13;60.43
11712;BME280;5912;51.034;6.984;2023-07-16T01:44:39;56190.06;;;-142.13;60.35
11712;BME280;5912;51.034;6.984;2023-07-16T01:47:09;56196.06;;;-142.13;60.68
11712;BME280;5912;51.034;6.984;2023-07-16T01:49:34;56200.09;;;-142.13;60.69
11712;BME280;5912;51.034;6.984;2023-07-16T01:52:01;56196.06;;;-142.13;60.18
11712;BME280;5912;51.034;6.984;2023-07-16T01:54:28;56188.06;;;-142.13;60.12
11712;BME280;5912;51.034;6.984;2023-07-16T01:56:53;56190.06;;;-142.13;59.99
11712;BME280;5912;51.034;6.984;2023-07-16T01:59:18;56200.09;;;-142.13;60.04
11712;BME280;5912;51.034;6.984;2023-07-16T02:01:43;56186.06;;;-142.13;59.78
11712;BME280;5912;51.034;6.984;2023-07-16T02:04:09;56186.06;;;-142.13;60.13
11712;BME280;5912;51.034;6.984;2023-07-16T02:06:34;56194.06;;;-142.13;60.13
11712;BME280;5912;51.034;6.984;2023-07-16T02:08:59;56186.06;;;-142.13;60.27
11712;BME280;5912;51.034;6.984;2023-07-16T02:11:25;56220.13;;;-142.13;60.09
11712;BME280;5912;51.034;6.984;2023-07-16T02:13:50;56164.03;;;-142.13;60.42
11712;BME280;5912;51.034;6.984;2023-07-16T02:16:15;56200.09;;;-142.13;60.73
11712;BME280;5912;51.034;6.984;2023-07-16T02:18:41;56200.09;;;-142.13;60.51
11712;BME280;5912;51.034;6.984;2023-07-16T02:21:06;56200.09;;;-142.13;61.01
11712;BME280;5912;51.034;6.984;2023-07-16T02:23:31;56204.09;;;-142.13;60.96
11712;BME280;5912;51.034;6.984;2023-07-16T02:25:56;56180.06;;;-142.13;61.22
11712;BME280;5912;51.034;6.984;2023-07-16T02:28:22;56194.06;;;-142.13;60.79
11712;BME280;5912;51.034;6.984;2023-07-16T02:30:49;56224.13;;;-142.13;60.89
11712;BME280;5912;51.034;6.984;2023-07-16T02:33:16;56208.09;;;-142.13;60.33
11712;BME280;5912;51.034;6.984;2023-07-16T02:35:46;56196.06;;;-142.13;60.35
11712;BME280;5912;51.034;6.984;2023-07-16T02:38:12;56188.06;;;-142.13;59.87
11712;BME280;5912;51.034;6.984;2023-07-16T02:40:46;56192.06;;;-142.13;59.89
11712;BME280;5912;51.034;6.984;2023-07-16T02:43:12;56162.03;;;-142.13;59.64
11712;BME280;5912;51.034;6.984;2023-07-16T02:45:37;56210.09;;;-142.13;59.37
11712;BME280;5912;51.034;6.984;2023-07-16T02:48:04;56178.03;;;-142.13;58.72
11712;BME280;5912;51.034;6.984;2023-07-16T02:50:30;56182.06;;;-142.13;57.69
11712;BME280;5912;51.034;6.984;2023-07-16T02:52:58;56192.06;;;-142.13;57.98
11712;BME280;5912;51.034;6.984;2023-07-16T02:55:23;56200.09;;;-142.13;56.70
11712;BME280;5912;51.034;6.984;2023-07-16T02:57:48;56224.13;;;-142.13;56.43
11712;BME280;5912;51.034;6.984;2023-07-16T03:00:14;56212.09;;;-142.13;55.60
11712;BME280;5912;51.034;6.984;2023-07-16T03:02:39;56212.09;;;-142.13;55.23
11712;BME280;5912;51.034;6.984;2023-07-16T03:05:05;56196.06;;;-142.13;55.37
11712;BME280;5912;51.034;6.984;2023-07-16T03:07:30;56178.03;;;-142.13;55.35
11712;BME280;5912;51.034;6.984;2023-07-16T03:09:56;56210.09;;;-142.13;54.99
11712;BME280;5912;51.034;6.984;2023-07-16T03:12:21;56200.09;;;-142.13;54.87
11712;BME280;5912;51.034;6.984;2023-07-16T03:14:47;56210.09;;;-142.13;55.34
11712;BME280;5912;51.034;6.984;2023-07-16T03:17:12;56188.06;;;-142.13;55.08
11712;BME280;5912;51.034;6.984;2023-07-16T03:19:37;56180.06;;;-142.13;55.63
11712;BME280;5912;51.034;6.984;2023-07-16T03:22:04;56192.06;;;-142.13;56.13
11712;BME280;5912;51.034;6.984;2023-07-16T03:24:29;56216.09;;;-142.13;55.82
11712;BME280;5912;51.034;6.984;2023-07-16T03:26:55;56190.06;;;-142.13;55.62
11712;BME280;5912;51.034;6.984;2023-07-16T03:29:20;56216.09;;;-142.13;55.86
11712;BME280;5912;51.034;6.984;2023-07-16T03:31:45;56214.09;;;-142.13;55.41
11712;BME280;5912;51.034;6.984;2023-07-16T03:34:11;56212.09;;;-142.13;55.24
11712;BME280;5912;51.034;6.984;2023-07-16T03:36:36;56192.06;;;-142.13;55.30
11712;BME280;5912;51.034;6.984;2023-07-16T03:39:01;56238.13;;;-142.13;55.63
11712;BME280;5912;51.034;6.984;2023-07-16T03:41:28;56194.06;;;-142.13;55.27
11712;BME280;5912;51.034;6.984;2023-07-16T03:43:53;56174.03;;;-142.13;55.47
11712;BME280;5912;51.034;6.984;2023-07-16T03:46:18;56220.13;;;-142.13;55.50
11712;BME280;5912;51.034;6.984;2023-07-16T03:48:44;56208.09;;;-142.13;55.18
11712;BME280;5912;51.034;6.984;2023-07-16T03:51:10;56216.09;;;-142.13;55.22
11712;BME280;5912;51.034;6.984;2023-07-16T03:53:35;56210.09;;;-142.13;55.39
11712;BME280;5912;51.034;6.984;2023-07-16T03:56:01;56190.06;;;-142.13;55.63
11712;BME280;5912;51.034;6.984;2023-07-16T03:58:26;56190.06;;;-142.13;55.89
11712;BME280;5912;51.034;6.984;2023-07-16T04:00:54;56210.09;;;-142.13;55.49
11712;BME280;5912;51.034;6.984;2023-07-16T04:03:19;56204.09;;;-142.13;55.65
11712;BME280;5912;51.034;6.984;2023-07-16T04:05:45;56188.06;;;-142.13;55.03
11712;BME280;5912;51.034;6.984;2023-07-16T04:08:10;56200.09;;;-142.13;54.71
11712;BME280;5912;51.034;6.984;2023-07-16T04:10:35;56214.09;;;-142.13;53.88
11712;BME280;5912;51.034;6.984;2023-07-16T04:13:01;56194.06;;;-142.13;53.44
11712;BME280;5912;51.034;6.984;2023-07-16T04:15:26;56212.09;;;-142.13;53.92
11712;BME280;5912;51.034;6.984;2023-07-16T04:17:51;56212.09;;;-142.13;53.99
11712;BME280;5912;51.034;6.984;2023-07-16T04:20:17;56184.06;;;-142.13;54.06
11712;BME280;5912;51.034;6.984;2023-07-16T04:22:42;56194.06;;;-142.13;52.94
11712;BME280;5912;51.034;6.984;2023-07-16T04:25:08;56212.09;;;-142.13;53.06
11712;BME280;5912;51.034;6.984;2023-07-16T04:27:33;56200.09;;;-142.13;52.89
11712;BME280;5912;51.034;6.984;2023-07-16T04:29:59;56184.06;;;-142.13;52.82
11712;BME280;5912;51.034;6.984;2023-07-16T04:32:24;56144.00;;;-142.13;52.70
11712;BME280;5912;51.034;6.984;2023-07-16T04:34:49;56212.09;;;-142.13;53.24
11712;BME280;5912;51.034;6.984;2023-07-16T04:37:15;56196.06;;;-142.13;52.88
11712;BME280;5912;51.034;6.984;2023-07-16T04:39:43;56188.06;;;-142.13;52.39
11712;BME280;5912;51.034;6.984;2023-07-16T04:42:08;56194.06;;;-142.13;53.06
11712;BME280;5912;51.034;6.984;2023-07-16T04:44:34;56180.06;;;-142.13;52.15
11712;BME280;5912;51.034;6.984;2023-07-16T04:46:59;56164.03;;;-142.13;52.29
11712;BME280;5912;51.034;6.984;2023-07-16T04:49:24;56184.06;;;-142.13;52.01
11712;BME280;5912;51.034;6.984;2023-07-16T04:51:50;56192.06;;;-142.13;51.90
11712;BME280;5912;51.034;6.984;2023-07-16T04:54:15;56174.03;;;-142.13;51.50
11712;BME280;5912;51.034;6.984;2023-07-16T04:56:40;56168.03;;;-142.13;51.20
11712;BME280;5912;51.034;6.984;2023-07-16T04:59:05;56150.00;;;-142.13;51.06
11712;BME280;5912;51.034;6.984;2023-07-16T05:01:31;56160.03;;;-142.13;51.05
11712;BME280;5912;51.034;6.984;2023-07-16T05:03:56;56180.06;;;-142.13;51.53
11712;BME280;5912;51.034;6.984;2023-07-16T05:06:21;56152.00;;;-142.13;51.38
11712;BME280;5912;51.034;6.984;2023-07-16T05:08:47;56178.03;;;-142.13;51.37
11712;BME280;5912;51.034;6.984;2023-07-16T05:11:12;56142.00;;;-142.13;50.75
11712;BME280;5912;51.034;6.984;2023-07-16T05:13:37;56166.03;;;-142.13;50.81
11712;BME280;5912;51.034;6.984;2023-07-16T05:16:03;56174.03;;;-142.13;50.83
11712;BME280;5912;51.034;6.984;2023-07-16T05:18:28;56176.03;;;-142.13;50.39
11712;BME280;5912;51.034;6.984;2023-07-16T05:20:54;56164.03;;;-142.13;50.03
11712;BME280;5912;51.034;6.984;2023-07-16T05:23:19;56152.00;;;-142.13;49.96
11712;BME280;5912;51.034;6.984;2023-07-16T05:25:48;56152.00;;;-142.13;49.56
11712;BME280;5912;51.034;6.984;2023-07-16T05:28:15;56160.03;;;-142.13;49.24
11712;BME280;5912;51.034;6.984;2023-07-16T05:30:40;56144.00;;;-142.13;49.31
11712;BME280;5912;51.034;6.984;2023-07-16T05:33:05;56137.97;;;-142.13;48.51
11712;BME280;5912;51.034;6.984;2023-07-16T05:35:31;56137.97;;;-142.13;48.67
11712;BME280;5912;51.034;6.984;2023-07-16T05:37:56;56119.97;;;-142.13;47.18
11712;BME280;5912;51.034;6.984;2023-07-16T05:40:21;56119.97;;;-142.13;48.00
11712;BME280;5912;51.034;6.984;2023-07-16T05:42:47;56156.00;;;-142.13;48.22
11712;BME280;5912;51.034;6.984;2023-07-16T05:45:12;56148.00;;;-142.13;47.61
11712;BME280;5912;51.034;6.984;2023-07-16T05:47:37;56164.03;;;-142.13;47.09
11712;BME280;5912;51.034;6.984;2023-07-16T05:50:03;56133.97;;;-142.13;46.82
11712;BME280;5912;51.034;6.984;2023-07-16T05:52:28;56117.97;;;-142.13;46.92
11712;BME280;5912;51.034;6.984;2023-07-16T05:54:54;56156.00;;;-142.13;46.58
11712;BME280;5912;51.034;6.984;2023-07-16T05:57:19;56113.94;;;-142.13;46.54
11712;BME280;5912;51.034;6.984;2023-07-16T05:59:44;56131.97;;;-142.13;45.43
11712;BME280;5912;51.034;6.984;2023-07-16T06:02:10;56140.00;;;-142.13;44.50
11712;BME280;5912;51.034;6.984;2023-07-16T06:04:35;56150.00;;;-142.13;44.76
11712;BME280;5912;51.034;6.984;2023-07-16T06:07:01;56131.97;;;-142.13;45.24
11712;BME280;5912;51.034;6.984;2023-07-16T06:09:27;56121.97;;;-142.13;45.15
11712;BME280;5912;51.034;6.984;2023-07-16T06:11:52;56146.00;;;-142.13;44.35
11712;BME280;5912;51.034;6.984;2023-07-16T06:14:18;56119.97;;;-142.13;44.45
11712;BME280;5912;51.034;6.984;2023-07-16T06:16:48;56135.97;;;-142.13;43.73
11712;BME280;5912;51.034;6.984;2023-07-16T06:19:14;56111.94;;;-142.13;43.45
11712;BME280;5912;51.034;6.984;2023-07-16T06:21:39;56119.97;;;-142.13;42.86
11712;BME280;5912;51.034;6.984;2023-07-16T06:24:05;56109.94;;;-142.13;41.86
11712;BME280;5912;51.034;6.984;2023-07-16T06:26:30;56099.94;;;-142.13;40.46
11712;BME280;5912;51.034;6.984;2023-07-16T06:28:56;56101.94;;;-142.13;40.26
11712;BME280;5912;51.034;6.984;2023-07-16T06:31:21;56061.88;;;-142.13;39.99
11712;BME280;5912;51.034;6.984;2023-07-16T06:33:47;56051.84;;;-142.13;39.46
11712;BME280;5912;51.034;6.984;2023-07-16T06:36:13;56035.81;;;-142.13;38.02
11712;BME280;5912;51.034;6.984;2023-07-16T06:38:38;55959.72;;;-142.13;36.46
11712;BME280;5912;51.034;6.984;2023-07-16T06:41:04;55953.72;;;-142.13;35.27
11712;BME280;5912;51.034;6.984;2023-07-16T06:43:29;55915.66;;;-142.13;33.51
11712;BME280;5912;51.034;6.984;2023-07-16T06:45:54;55917.66;;;-142.13;33.13
11712;BME280;5912;51.034;6.984;2023-07-16T06:48:20;55891.63;;;-142.13;32.19
11712;BME280;5912;51.034;6.984;2023-07-16T06:50:45;55899.63;;;-142.13;31.80
11712;BME280;5912;51.034;6.984;2023-07-16T06:53:10;55859.56;;;-142.13;31.41
11712;BME280;5912;51.034;6.984;2023-07-16T06:55:36;55885.59;;;-142.13;30.89
11712;BME280;5912;51.034;6.984;2023-07-16T06:58:02;55887.59;;;-142.13;31.11
11712;BME280;5912;51.034;6.984;2023-07-16T07:00:28;55841.53;;;-142.13;29.85
11712;BME280;5912;51.034;6.984;2023-07-16T07:02:53;55831.53;;;-142.13;29.71
11712;BME280;5912;51.034;6.984;2023-07-16T07:05:19;55859.56;;;-142.13;30.05
11712;BME280;5912;51.034;6.984;2023-07-16T07:07:44;55849.56;;;-142.13;30.35
11712;BME280;5912;51.034;6.984;2023-07-16T07:10:11;55859.56;;;-142.13;30.02
11712;BME280;5912;51.034;6.984;2023-07-16T07:12:37;55859.56;;;-142.13;30.15
11712;BME280;5912;51.034;6.984;2023-07-16T07:15:07;55817.50;;;-142.13;29.77
11712;BME280;5912;51.034;6.984;2023-07-16T07:17:33;55831.53;;;-142.13;29.10
11712;BME280;5912;51.034;6.984;2023-07-16T07:20:00;55781.44;;;-142.13;28.73
11712;BME280;5912;51.034;6.984;2023-07-16T07:22:25;55751.41;;;-142.13;28.22
11712;BME280;5912;51.034;6.984;2023-07-16T07:24:50;55739.38;;;-142.13;27.73
11712;BME280;5912;51.034;6.984;2023-07-16T07:27:16;55753.41;;;-142.13;27.24
11712;BME280;5912;51.034;6.984;2023-07-16T07:29:41;55715.34;;;-142.13;26.34
11712;BME280;5912;51.034;6.984;2023-07-16T07:32:07;55737.38;;;-142.13;26.45
11712;BME280;5912;51.034;6.984;2023-07-16T07:34:33;55725.38;;;-142.13;26.53
11712;BME280;5912;51.034;6.984;2023-07-16T07:36:58;55723.38;;;-142.13;26.36
11712;BME280;5912;51.034;6.984;2023-07-16T07:39:23;55683.31;;;-142.13;26.43
11712;BME280;5912;51.034;6.984;2023-07-16T07:41:49;55667.28;;;-142.13;25.84
11712;BME280;5912;51.034;6.984;2023-07-16T07:44:14;55683.31;;;-142.13;26.14
11712;BME280;5912;51.034;6.984;2023-07-16T07:46:39;55655.28;;;-142.13;25.22
11712;BME280;5912;51.034;6.984;2023-07-16T07:49:05;55667.28;;;-142.13;25.16
11712;BME280;5912;51.034;6.984;2023-07-16T07:51:30;55661.28;;;-142.13;25.30
11712;BME280;5912;51.034;6.984;2023-07-16T07:53:55;55683.31;;;-142.13;25.22
11712;BME280;5912;51.034;6.984;2023-07-16T07:56:21;55691.31;;;-142.13;25.79
11712;BME280;5912;51.034;6.984;2023-07-16T07:58:46;55727.38;;;-142.13;25.46
11712;BME280;5912;51.034;6.984;2023-07-16T08:01:11;55717.34;;;-142.13;25.65
11712;BME280;5912;51.034;6.984;2023-07-16T08:03:37;55747.41;;;-142.13;26.50
11712;BME280;5912;51.034;6.984;2023-07-16T08:06:02;55705.34;;;-142.13;26.46
11712;BME280;5912;51.034;6.984;2023-07-16T08:08:27;55695.31;;;-142.13;25.82
11712;BME280;5912;51.034;6.984;2023-07-16T08:10:54;55723.38;;;-142.13;26.31
11712;BME280;5912;51.034;6.984;2023-07-16T08:13:19;55747.41;;;-142.13;26.67
11712;BME280;5912;51.034;6.984;2023-07-16T08:15:45;55745.41;;;-142.13;26.25
11712;BME280;5912;51.034;6.984;2023-07-16T08:18:10;55735.38;;;-142.13;25.82
11712;BME280;5912;51.034;6.984;2023-07-16T08:20:36;55747.41;;;-142.13;26.72
11712;BME280;5912;51.034;6.984;2023-07-16T08:23:02;55727.38;;;-142.13;26.64
11712;BME280;5912;51.034;6.984;2023-07-16T08:25:27;55679.31;;;-142.13;26.08
11712;BME280;5912;51.034;6.984;2023-07-16T08:27:53;55683.31;;;-142.13;25.89
11712;BME280;5912;51.034;6.984;2023-07-16T08:30:18;55663.28;;;-142.13;25.22
11712;BME280;5912;51.034;6.984;2023-07-16T08:32:43;55693.31;;;-142.13;25.47
11712;BME280;5912;51.034;6.984;2023-07-16T08:35:09;55693.31;;;-142.13;26.33
11712;BME280;5912;51.034;6.984;2023-07-16T08:37:41;55697.34;;;-142.13;25.81
11712;BME280;5912;51.034;6.984;2023-07-16T08:40:06;55663.28;;;-142.13;25.13
11712;BME280;5912;51.034;6.984;2023-07-16T08:42:32;55671.28;;;-142.13;24.68
11712;BME280;5912;51.034;6.984;2023-07-16T08:44:57;55711.34;;;-142.13;25.38
11712;BME280;5912;51.034;6.984;2023-07-16T08:47:23;55739.38;;;-142.13;26.33
11712;BME280;5912;51.034;6.984;2023-07-16T08:49:54;55713.34;;;-142.13;25.72
11712;BME280;5912;51.034;6.984;2023-07-16T08:52:21;55667.28;;;-142.13;24.91
11712;BME280;5912;51.034;6.984;2023-07-16T08:54:46;55649.25;;;-142.13;24.66
11712;BME280;5912;51.034;6.984;2023-07-16T08:57:12;55653.28;;;-142.13;24.41
11712;BME280;5912;51.034;6.984;2023-07-16T08:59:38;55667.28;;;-142.13;24.33
11712;BME280;5912;51.034;6.984;2023-07-16T09:02:04;55665.28;;;-142.13;24.83
11712;BME280;5912;51.034;6.984;2023-07-16T09:04:30;55663.28;;;-142.13;24.18
11712;BME280;5912;51.034;6.984;2023-07-16T09:06:56;55659.28;;;-142.13;24.38
11712;BME280;5912;51.034;6.984;2023-07-16T09:09:22;55659.28;;;-142.13;24.40
11712;BME280;5912;51.034;6.984;2023-07-16T09:11:48;55625.22;;;-142.13;24.70
11712;BME280;5912;51.034;6.984;2023-07-16T09:14:20;55621.22;;;-142.13;23.94
11712;BME280;5912;51.034;6.984;2023-07-16T09:16:49;55623.22;;;-142.13;23.54
11712;BME280;5912;51.034;6.984;2023-07-16T09:19:15;55651.25;;;-142.13;24.01
11712;BME280;5912;51.034;6.984;2023-07-16T09:21:42;55653.28;;;-142.13;24.13
11712;BME280;5912;51.034;6.984;2023-07-16T09:24:08;55671.28;;;-142.13;23.84
11712;BME280;5912;51.034;6.984;2023-07-16T09:26:36;55703.34;;;-142.13;25.05
11712;BME280;5912;51.034;6.984;2023-07-16T09:29:05;55723.38;;;-142.13;24.91
11712;BME280;5912;51.034;6.984;2023-07-16T09:31:31;55721.38;;;-142.13;24.98
11712;BME280;5912;51.034;6.984;2023-07-16T09:33:57;55693.31;;;-142.13;25.24
11712;BME280;5912;51.034;6.984;2023-07-16T09:36:25;55725.38;;;-142.13;25.92
11712;BME280;5912;51.034;6.984;2023-07-16T09:38:52;55707.34;;;-142.13;25.97
11712;BME280;5912;51.034;6.984;2023-07-16T09:41:19;55705.34;;;-142.13;25.18
11712;BME280;5912;51.034;6.984;2023-07-16T09:43:45;55703.34;;;-142.13;25.58
11712;BME280;5912;51.034;6.984;2023-07-16T09:46:10;55715.34;;;-142.13;25.43
11712;BME280;5912;51.034;6.984;2023-07-16T09:48:36;55683.31;;;-142.13;24.67
11712;BME280;5912;51.034;6.984;2023-07-16T09:51:01;55721.38;;;-142.13;25.48
11712;BME280;5912;51.034;6.984;2023-07-16T09:53:27;55705.34;;;-142.13;26.02
11712;BME280;5912;51.034;6.984;2023-07-16T09:55:56;55729.38;;;-142.13;26.24
11712;BME280;5912;51.034;6.984;2023-07-16T09:58:24;55751.41;;;-142.13;26.52
11712;BME280;5912;51.034;6.984;2023-07-16T10:00:50;55795.47;;;-142.13;26.87
11712;BME280;5912;51.034;6.984;2023-07-16T10:03:16;55775.44;;;-142.13;26.91
11712;BME280;5912;51.034;6.984;2023-07-16T10:05:42;55769.44;;;-142.13;27.38
11712;BME280;5912;51.034;6.984;2023-07-16T10:08:18;55759.41;;;-142.13;27.55
11712;BME280;5912;51.034;6.984;2023-07-16T10:10:52;55797.47;;;-142.13;27.65
11712;BME280;5912;51.034;6.984;2023-07-16T10:13:22;55789.47;;;-142.13;27.59
11712;BME280;5912;51.034;6.984;2023-07-16T10:15:58;55795.47;;;-142.13;28.00
11712;BME280;5912;51.034;6.984;2023-07-16T10:18:30;55795.47;;;-142.13;27.66
11712;BME280;5912;51.034;6.984;2023-07-16T10:21:22;55807.50;;;-142.13;27.08
11712;BME280;5912;51.034;6.984;2023-07-16T10:23:56;55799.47;;;-142.13;27.64
11712;BME280;5912;51.034;6.984;2023-07-16T10:26:26;55799.47;;;-142.13;28.15
11712;BME280;5912;51.034;6.984;2023-07-16T10:28:53;55801.47;;;-142.13;28.00
11712;BME280;5912;51.034;6.984;2023-07-16T10:31:23;55843.53;;;-142.13;28.44
11712;BME280;5912;51.034;6.984;2023-07-16T10:34:02;55819.50;;;-142.13;28.32
11712;BME280;5912;51.034;6.984;2023-07-16T10:36:29;55801.47;;;-142.13;27.78
11712;BME280;5912;51.034;6.984;2023-07-16T10:39:01;55797.47;;;-142.13;27.92
11712;BME280;5912;51.034;6.984;2023-07-16T10:41:28;55803.47;;;-142.13;27.95
11712;BME280;5912;51.034;6.984;2023-07-16T10:43:53;55783.47;;;-142.13;27.61
11712;BME280;5912;51.034;6.984;2023-07-16T10:46:20;55817.50;;;-142.13;27.66
11712;BME280;5912;51.034;6.984;2023-07-16T10:48:46;55811.50;;;-142.13;28.10
11712;BME280;5912;51.034;6.984;2023-07-16T10:51:14;55785.47;;;-142.13;27.88
11712;BME280;5912;51.034;6.984;2023-07-16T10:53:42;55793.47;;;-142.13;27.92
11712;BME280;5912;51.034;6.984;2023-07-16T10:56:07;55815.50;;;-142.13;27.77
11712;BME280;5912;51.034;6.984;2023-07-16T10:58:33;55799.47;;;-142.13;28.27
11712;BME280;5912;51.034;6.984;2023-07-16T11:00:58;55795.47;;;-142.13;28.32
11712;BME280;5912;51.034;6.984;2023-07-16T11:03:24;55809.50;;;-142.13;27.85
11712;BME280;5912;51.034;6.984;2023-07-16T11:05:49;55827.53;;;-142.13;28.19
11712;BME280;5912;51.034;6.984;2023-07-16T11:08:24;55849.56;;;-142.13;28.22
11712;BME280;5912;51.034;6.984;2023-07-16T11:10:56;55803.47;;;-142.13;28.45
11712;BME280;5912;51.034;6.984;2023-07-16T11:13:28;55771.44;;;-142.13;27.88
11712;BME280;5912;51.034;6.984;2023-07-16T11:15:54;55793.47;;;-142.13;27.44
11712;BME280;5912;51.034;6.984;2023-07-16T11:18:22;55795.47;;;-142.13;27.02
11712;BME280;5912;51.034;6.984;2023-07-16T11:20:51;55795.47;;;-142.13;26.93
11712;BME280;5912;51.034;6.984;2023-07-16T11:23:17;55783.47;;;-142.13;27.20
11712;BME280;5912;51.034;6.984;2023-07-16T11:25:47;55797.47;;;-142.13;27.21
11712;BME280;5912;51.034;6.984;2023-07-16T11:28:12;55759.41;;;-142.13;27.36
11712;BME280;5912;51.034;6.984;2023-07-16T11:30:37;55759.41;;;-142.13;26.80
11712;BME280;5912;51.034;6.984;2023-07-16T11:33:03;55773.44;;;-142.13;26.92
11712;BME280;5912;51.034;6.984;2023-07-16T11:35:29;55759.41;;;-142.13;26.84
11712;BME280;5912;51.034;6.984;2023-07-16T11:37:54;55761.41;;;-142.13;27.32
11712;BME280;5912;51.034;6.984;2023-07-16T11:40:20;55751.41;;;-142.13;26.97
11712;BME280;5912;51.034;6.984;2023-07-16T11:42:46;55719.38;;;-142.13;26.43
11712;BME280;5912;51.034;6.984;2023-07-16T11:45:22;55697.34;;;-142.13;25.83
11712;BME280;5912;51.034;6.984;2023-07-16T11:47:48;55675.31;;;-142.13;25.37
11712;BME280;5912;51.034;6.984;2023-07-16T11:50:14;55667.28;;;-142.13;24.96
11712;BME280;5912;51.034;6.984;2023-07-16T11:52:40;55643.25;;;-142.13;24.60
11712;BME280;5912;51.034;6.984;2023-07-16T11:55:06;55653.28;;;-142.13;24.77
11712;BME280;5912;51.034;6.984;2023-07-16T11:57:31;55669.28;;;-142.13;25.12
11712;BME280;5912;51.034;6.984;2023-07-16T11:59:57;55683.31;;;-142.13;25.52
11712;BME280;5912;51.034;6.984;2023-07-16T12:02:22;55695.31;;;-142.13;25.27
11712;BME280;5912;51.034;6.984;2023-07-16T12:04:50;55723.38;;;-142.13;26.14
11712;BME280;5912;51.034;6.984;2023-07-16T12:07:30;55715.34;;;-142.13;26.11
11712;BME280;5912;51.034;6.984;2023-07-16T12:09:56;55677.31;;;-142.13;26.43
11712;BME280;5912;51.034;6.984;2023-07-16T12:12:21;55679.31;;;-142.13;26.39
11712;BME280;5912;51.034;6.984;2023-07-16T12:14:47;55689.31;;;-142.13;25.28
11712;BME280;5912;51.034;6.984;2023-07-16T12:17:12;55663.28;;;-142.13;25.64
11712;BME280;5912;51.034;6.984;2023-07-16T12:19:38;55665.28;;;-142.13;25.23
11712;BME280;5912;51.034;6.984;2023-07-16T12:22:04;55691.31;;;-142.13;25.68
11712;BME280;5912;51.034;6.984;2023-07-16T12:24:30;55701.34;;;-142.13;26.00
11712;BME280;5912;51.034;6.984;2023-07-16T12:26:56;55703.34;;;-142.13;26.55
11712;BME280;5912;51.034;6.984;2023-07-16T12:29:21;55687.31;;;-142.13;25.36
11712;BME280;5912;51.034;6.984;2023-07-16T12:31:46;55659.28;;;-142.13;25.16
11712;BME280;5912;51.034;6.984;2023-07-16T12:34:12;55651.25;;;-142.13;25.15
11712;BME280;5912;51.034;6.984;2023-07-16T12:36:37;55669.28;;;-142.13;25.29
11712;BME280;5912;51.034;6.984;2023-07-16T12:39:03;55717.34;;;-142.13;26.07
11712;BME280;5912;51.034;6.984;2023-07-16T12:41:28;55689.31;;;-142.13;26.00
11712;BME280;5912;51.034;6.984;2023-07-16T12:43:53;55695.31;;;-142.13;25.55
11712;BME280;5912;51.034;6.984;2023-07-16T12:46:19;55719.38;;;-142.13;26.07
11712;BME280;5912;51.034;6.984;2023-07-16T12:48:44;55691.31;;;-142.13;25.94
11712;BME280;5912;51.034;6.984;2023-07-16T12:51:09;55703.34;;;-142.13;25.81
11712;BME280;5912;51.034;6.984;2023-07-16T12:53:35;55699.34;;;-142.13;25.60